Time;durP1;ratioP1;P1;durP2;ratioP2;P2;SDS_P1;SDS_P2;PMS_P1;PMS_P2;Temp;Humidity;BMP_temperature;BMP_pressure;BME280_temperature;BME280_humidity;BME280_pressure;Samples;Min_cycle;Max_cycle;Signal;HPM_P1;HPM_P2
2023/01/09 00:01:12;;;;;;;0.30;0.30;;;10.60;99.90;;;;;;4993535;28;20214;-63
2023/01/09 00:03:40;;;;;;;0.43;0.40;;;10.60;99.90;;;;;;4993490;28;20673;-64
2023/01/09 00:06:07;;;;;;;0.30;0.30;;;10.50;99.90;;;;;;4992343;28;20244;-63
2023/01/09 00:08:34;;;;;;;0.30;0.30;;;10.50;99.90;;;;;;4993467;28;20248;-64
2023/01/09 00:11:01;;;;;;;0.20;0.20;;;10.50;99.90;;;;;;4992869;28;20202;-65
2023/01/09 00:13:28;;;;;;;0.20;0.20;;;10.50;99.90;;;;;;4993339;28;20311;-65
2023/01/09 00:15:55;;;;;;;0.30;0.30;;;10.50;99.90;;;;;;4992486;28;20222;-68
2023/01/09 00:18:21;;;;;;;0.40;0.40;;;10.40;99.90;;;;;;4991993;28;20206;-65
2023/01/09 00:20:50;;;;;;;0.30;0.30;;;10.40;99.90;;;;;;4991275;28;20206;-64
2023/01/09 00:23:16;;;;;;;0.30;0.30;;;10.40;99.90;;;;;;4991353;28;20232;-65
2023/01/09 00:25:43;;;;;;;0.40;0.40;;;10.50;99.90;;;;;;4991560;28;20230;-64
2023/01/09 00:28:10;;;;;;;0.38;0.38;;;10.50;99.90;;;;;;4992096;28;20210;-65
2023/01/09 00:30:37;;;;;;;0.30;0.30;;;10.50;99.90;;;;;;4995462;28;20226;-66
2023/01/09 00:33:04;;;;;;;0.43;0.43;;;10.50;99.90;;;;;;4995540;28;20206;-63
2023/01/09 00:35:31;;;;;;;0.60;0.60;;;10.50;99.90;;;;;;4990474;28;20210;-64
2023/01/09 00:37:59;;;;;;;0.30;0.30;;;10.40;99.90;;;;;;4990580;28;20237;-63
2023/01/09 00:40:26;;;;;;;0.30;0.30;;;10.40;99.90;;;;;;4990939;28;20248;-65
2023/01/09 00:42:56;;;;;;;0.23;0.23;;;10.40;99.90;;;;;;4990995;28;20208;-65
2023/01/09 00:45:27;;;;;;;0.20;0.20;;;10.30;99.90;;;;;;4990361;28;20226;-65
2023/01/09 00:47:58;;;;;;;0.20;0.20;;;10.20;99.90;;;;;;4990615;28;20210;-64
2023/01/09 00:50:29;;;;;;;0.30;0.30;;;10.20;99.90;;;;;;4990511;28;20244;-63
2023/01/09 00:53:01;;;;;;;0.30;0.30;;;10.20;99.90;;;;;;4990334;28;20256;-64
2023/01/09 00:55:27;;;;;;;0.40;0.40;;;10.20;99.90;;;;;;4990532;28;20210;-65
2023/01/09 00:57:55;;;;;;;0.30;0.30;;;10.10;99.90;;;;;;4990506;28;20587;-64
2023/01/09 01:00:22;;;;;;;0.30;0.30;;;10.20;99.90;;;;;;4990197;28;20620;-65
2023/01/09 01:02:49;;;;;;;0.20;0.20;;;10.20;99.90;;;;;;4990290;28;20206;-64
2023/01/09 01:08:02;;;;;;;0.10;0.10;;;10.20;99.90;;;;;;4990373;28;21047;-62
2023/01/09 01:10:29;;;;;;;0.17;0.17;;;10.20;99.90;;;;;;4989976;28;20206;-65
2023/01/09 01:12:56;;;;;;;0.10;0.10;;;10.10;99.90;;;;;;4989973;28;20292;-64
2023/01/09 01:15:22;;;;;;;0.20;0.20;;;10.20;99.90;;;;;;4989658;28;20206;-64
2023/01/09 01:17:49;;;;;;;0.38;0.38;;;10.20;99.90;;;;;;4989937;28;20229;-64
2023/01/09 01:20:18;;;;;;;0.33;0.33;;;10.20;99.90;;;;;;4989975;28;20202;-64
2023/01/09 01:22:45;;;;;;;0.40;0.40;;;10.30;99.90;;;;;;4990223;28;20210;-65
2023/01/09 01:25:16;;;;;;;0.30;0.30;;;10.30;99.90;;;;;;4989632;28;20619;-65
2023/01/09 01:27:43;;;;;;;0.23;0.23;;;10.30;99.90;;;;;;4989919;28;20741;-64
2023/01/09 01:30:13;;;;;;;0.20;0.20;;;10.30;99.90;;;;;;4989648;28;20218;-65
2023/01/09 01:32:40;;;;;;;0.40;0.40;;;10.30;99.90;;;;;;4990067;28;20202;-65
2023/01/09 01:35:08;;;;;;;0.30;0.30;;;10.30;99.90;;;;;;4989917;28;20212;-65
2023/01/09 01:37:36;;;;;;;0.20;0.20;;;10.30;99.90;;;;;;4990001;28;20226;-65
2023/01/09 01:40:04;;;;;;;0.20;0.20;;;10.30;99.90;;;;;;4990069;28;20206;-64
2023/01/09 01:42:32;;;;;;;0.10;0.10;;;10.40;99.90;;;;;;4989759;28;20212;-63
2023/01/09 01:45:06;;;;;;;0.10;0.10;;;10.40;99.90;;;;;;4989528;28;20318;-64
2023/01/09 01:47:53;;;;;;;0.30;0.30;;;10.40;99.90;;;;;;4988213;28;20229;-65
2023/01/09 01:50:29;;;;;;;0.20;0.20;;;10.40;99.90;;;;;;4989820;28;20206;-65
2023/01/09 01:53:09;;;;;;;0.10;0.10;;;10.40;99.90;;;;;;4991041;28;20212;-64
2023/01/09 01:55:41;;;;;;;0.30;0.30;;;10.50;99.90;;;;;;4994312;28;20190;-66
2023/01/09 01:58:13;;;;;;;0.20;0.20;;;10.50;99.90;;;;;;4997328;28;20216;-65
2023/01/09 02:00:43;;;;;;;0.20;0.20;;;10.50;99.90;;;;;;4995297;28;20200;-65
2023/01/09 02:03:10;;;;;;;0.20;0.20;;;10.40;99.90;;;;;;4992207;28;20210;-66
2023/01/09 02:05:39;;;;;;;0.20;0.20;;;10.40;99.90;;;;;;4989575;28;20247;-64
2023/01/09 02:08:07;;;;;;;0.17;0.17;;;10.30;99.90;;;;;;4990060;28;20210;-65
2023/01/09 02:10:34;;;;;;;0.20;0.20;;;10.30;99.90;;;;;;5003923;28;20209;-65
2023/01/09 02:13:02;;;;;;;0.22;0.22;;;10.30;99.90;;;;;;5092578;28;20209;-65
2023/01/09 02:15:43;;;;;;;0.20;0.20;;;10.30;99.90;;;;;;5091895;28;20202;-64
2023/01/09 02:18:31;;;;;;;0.17;0.17;;;10.30;99.90;;;;;;5091687;28;20220;-64
2023/01/09 02:21:01;;;;;;;0.20;0.20;;;10.30;99.90;;;;;;5090925;28;20202;-66
2023/01/09 02:23:55;;;;;;;0.30;0.30;;;10.20;99.90;;;;;;5091638;28;20610;-66
2023/01/09 02:26:57;;;;;;;0.20;0.20;;;10.20;99.90;;;;;;5090787;28;20363;-65
2023/01/09 02:29:57;;;;;;;0.13;0.13;;;10.20;99.90;;;;;;5086069;28;20666;-67
2023/01/09 02:32:40;;;;;;;0.30;0.30;;;10.20;99.90;;;;;;5091068;28;20325;-66
2023/01/09 02:35:16;;;;;;;0.20;0.20;;;10.20;99.90;;;;;;5091213;28;20199;-66
2023/01/09 02:37:51;;;;;;;0.30;0.30;;;10.30;99.90;;;;;;5092057;28;20226;-66
2023/01/09 02:40:25;;;;;;;0.20;0.20;;;10.20;99.90;;;;;;5094187;28;20212;-66
2023/01/09 02:42:53;;;;;;;0.30;0.30;;;10.20;99.90;;;;;;5100557;28;20249;-65
2023/01/09 02:45:20;;;;;;;0.30;0.30;;;10.20;99.90;;;;;;5100970;28;20218;-66
2023/01/09 02:47:49;;;;;;;0.20;0.20;;;10.20;99.90;;;;;;5092054;28;20229;-66
2023/01/09 02:50:20;;;;;;;0.20;0.20;;;10.20;99.90;;;;;;5091266;28;20290;-65
2023/01/09 02:53:25;;;;;;;0.30;0.30;;;10.30;99.90;;;;;;5092091;28;20202;-65
2023/01/09 02:56:07;;;;;;;0.20;0.20;;;10.20;99.90;;;;;;5046192;28;20588;-66
2023/01/09 02:58:51;;;;;;;0.30;0.30;;;10.10;99.90;;;;;;5097053;28;20658;-64
2023/01/09 03:01:27;;;;;;;0.30;0.30;;;10.20;99.90;;;;;;5096254;28;20216;-66
2023/01/09 03:04:01;;;;;;;0.30;0.30;;;10.10;99.90;;;;;;5090813;28;20738;-64
2023/01/09 03:06:36;;;;;;;0.27;0.27;;;10.00;99.90;;;;;;5090392;28;20236;-66
2023/01/09 03:09:06;;;;;;;0.30;0.30;;;10.00;99.90;;;;;;5094685;28;21064;-68
2023/01/09 03:11:39;;;;;;;0.30;0.30;;;9.90;99.90;;;;;;5090493;28;20286;-64
2023/01/09 03:14:09;;;;;;;0.23;0.23;;;9.90;99.90;;;;;;5092026;28;20309;-66
2023/01/09 03:16:37;;;;;;;0.53;0.53;;;9.90;99.90;;;;;;5095569;28;20967;-65
2023/01/09 03:19:10;;;;;;;0.27;0.27;;;9.90;99.90;;;;;;5093911;28;20297;-63
2023/01/09 03:21:38;;;;;;;0.37;0.37;;;9.90;99.90;;;;;;5092650;28;20305;-65
2023/01/09 03:24:05;;;;;;;0.20;0.20;;;9.70;99.90;;;;;;5093298;28;20214;-65
2023/01/09 03:26:32;;;;;;;0.20;0.20;;;9.70;99.90;;;;;;5093146;28;20230;-65
2023/01/09 03:28:59;;;;;;;0.10;0.10;;;9.60;99.90;;;;;;5093374;28;20740;-65
2023/01/09 03:31:26;;;;;;;0.20;0.20;;;9.50;99.90;;;;;;5093949;28;20209;-64
2023/01/09 03:33:53;;;;;;;0.20;0.20;;;9.40;99.90;;;;;;5093036;28;20290;-65
2023/01/09 03:36:22;;;;;;;0.20;0.20;;;9.40;99.90;;;;;;5092635;28;20772;-65
2023/01/09 03:38:50;;;;;;;0.10;0.10;;;9.30;99.90;;;;;;5092482;28;20289;-66
2023/01/09 03:41:18;;;;;;;0.10;0.10;;;9.30;99.90;;;;;;5094382;28;20215;-64
2023/01/09 03:43:46;;;;;;;0.20;0.20;;;9.20;99.90;;;;;;5094080;28;20206;-65
2023/01/09 03:46:13;;;;;;;0.30;0.30;;;9.10;99.90;;;;;;5092793;28;20231;-65
2023/01/09 03:48:40;;;;;;;0.27;0.27;;;9.20;99.90;;;;;;5092799;28;20241;-66
2023/01/09 03:51:07;;;;;;;0.30;0.30;;;9.20;99.90;;;;;;5093022;28;20237;-65
2023/01/09 03:53:35;;;;;;;0.20;0.20;;;9.10;99.90;;;;;;5093439;28;20910;-66
2023/01/09 03:56:02;;;;;;;0.20;0.20;;;9.10;99.90;;;;;;5092503;28;20227;-64
2023/01/09 03:58:28;;;;;;;0.20;0.20;;;9.10;99.90;;;;;;5092992;28;20244;-65
2023/01/09 04:00:59;;;;;;;0.13;0.13;;;9.10;99.90;;;;;;5092727;28;20207;-64
2023/01/09 04:03:26;;;;;;;0.10;0.10;;;9.10;99.90;;;;;;5093461;28;20210;-65
2023/01/09 04:05:53;;;;;;;0.20;0.20;;;9.10;99.90;;;;;;5093086;28;20714;-65
2023/01/09 04:08:20;;;;;;;0.10;0.10;;;9.00;99.90;;;;;;5097732;28;20209;-65
2023/01/09 04:10:49;;;;;;;0.20;0.20;;;9.10;99.90;;;;;;5100195;28;20269;-65
2023/01/09 04:13:16;;;;;;;0.13;0.13;;;9.10;99.90;;;;;;5096232;28;20207;-65
2023/01/09 04:15:43;;;;;;;0.30;0.30;;;9.10;99.90;;;;;;5098078;28;20749;-65
2023/01/09 04:18:10;;;;;;;0.20;0.20;;;9.10;99.90;;;;;;5094056;28;20663;-65
2023/01/09 04:20:37;;;;;;;0.20;0.20;;;9.10;99.90;;;;;;5095144;28;20205;-69
2023/01/09 04:23:04;;;;;;;0.20;0.20;;;9.10;99.90;;;;;;5093770;28;20773;-65
2023/01/09 04:25:31;;;;;;;0.10;0.10;;;9.20;99.90;;;;;;5091773;28;20254;-65
2023/01/09 04:27:59;;;;;;;0.20;0.20;;;9.20;99.90;;;;;;5093013;28;20266;-64
2023/01/09 04:30:26;;;;;;;0.20;0.20;;;9.20;99.90;;;;;;5092353;28;20306;-65
2023/01/09 04:32:53;;;;;;;0.10;0.10;;;9.10;99.90;;;;;;5092718;28;20206;-67
2023/01/09 04:35:20;;;;;;;0.20;0.20;;;9.10;99.90;;;;;;5092128;28;20275;-65
2023/01/09 04:37:47;;;;;;;0.20;0.20;;;9.10;99.90;;;;;;5092448;28;20604;-65
2023/01/09 04:40:17;;;;;;;0.30;0.30;;;9.10;99.90;;;;;;5092530;28;20309;-64
2023/01/09 04:42:44;;;;;;;0.10;0.10;;;9.00;99.90;;;;;;5093014;28;20680;-65
2023/01/09 04:45:14;;;;;;;0.20;0.20;;;9.00;99.90;;;;;;5091414;28;20213;-65
2023/01/09 04:47:41;;;;;;;0.30;0.30;;;9.00;99.90;;;;;;5094131;28;20231;-65
2023/01/09 04:50:09;;;;;;;0.20;0.20;;;8.90;99.90;;;;;;5092923;28;20203;-65
2023/01/09 04:52:36;;;;;;;0.20;0.20;;;8.90;99.90;;;;;;5093765;28;20281;-65
2023/01/09 04:55:04;;;;;;;0.43;0.40;;;8.80;99.90;;;;;;5093506;28;20289;-64
2023/01/09 04:57:31;;;;;;;0.30;0.30;;;8.80;99.90;;;;;;5098378;28;20227;-65
2023/01/09 04:59:58;;;;;;;0.30;0.30;;;8.70;99.90;;;;;;5109799;28;20230;-65
2023/01/09 05:02:26;;;;;;;0.40;0.40;;;8.70;99.90;;;;;;5094299;28;20203;-65
2023/01/09 05:04:53;;;;;;;0.40;0.40;;;8.70;99.90;;;;;;5092624;28;20202;-63
2023/01/09 05:07:19;;;;;;;0.40;0.40;;;8.70;99.90;;;;;;5092013;28;20234;-64
2023/01/09 05:09:46;;;;;;;0.20;0.20;;;8.60;99.90;;;;;;5092075;28;20207;-65
2023/01/09 05:12:13;;;;;;;0.40;0.40;;;8.60;99.90;;;;;;5091938;28;20229;-65
2023/01/09 05:14:40;;;;;;;0.40;0.40;;;8.70;99.90;;;;;;5091598;28;20206;-66
2023/01/09 05:17:07;;;;;;;0.30;0.30;;;8.70;99.90;;;;;;5090939;28;20225;-63
2023/01/09 05:19:35;;;;;;;0.60;0.60;;;8.70;99.90;;;;;;5091297;28;20293;-63
2023/01/09 05:22:02;;;;;;;0.50;0.50;;;8.70;99.90;;;;;;5091496;28;20203;-64
2023/01/09 05:24:28;;;;;;;0.50;0.50;;;8.70;99.90;;;;;;5091718;28;20206;-64
2023/01/09 05:26:56;;;;;;;0.30;0.30;;;8.70;99.90;;;;;;5090718;28;20350;-63
2023/01/09 05:29:23;;;;;;;0.60;0.60;;;8.70;99.90;;;;;;5091324;28;20298;-64
2023/01/09 05:31:51;;;;;;;0.80;0.80;;;8.60;99.90;;;;;;5091318;28;20259;-64
2023/01/09 05:34:18;;;;;;;0.40;0.40;;;8.60;99.90;;;;;;5091295;28;20209;-67
2023/01/09 05:36:46;;;;;;;0.40;0.40;;;8.60;99.90;;;;;;5090550;28;20218;-64
2023/01/09 05:39:13;;;;;;;0.50;0.50;;;8.60;99.90;;;;;;5088031;28;20206;-65
2023/01/09 05:41:40;;;;;;;0.40;0.40;;;8.70;99.90;;;;;;5023903;28;20201;-65
2023/01/09 05:44:07;;;;;;;0.40;0.40;;;8.70;99.90;;;;;;4979132;28;20202;-65
2023/01/09 05:46:33;;;;;;;0.40;0.40;;;8.80;99.90;;;;;;4980494;28;20222;-64
2023/01/09 05:49:00;;;;;;;0.53;0.53;;;8.80;99.90;;;;;;4978420;28;20213;-63
2023/01/09 05:51:27;;;;;;;0.50;0.50;;;8.80;99.90;;;;;;4973384;28;20202;-65
2023/01/09 05:53:55;;;;;;;0.67;0.50;;;8.70;99.90;;;;;;4970388;28;20730;-64
2023/01/09 05:56:22;;;;;;;0.50;0.50;;;8.80;99.90;;;;;;4969813;28;20279;-63
2023/01/09 05:58:49;;;;;;;0.57;0.57;;;8.80;99.90;;;;;;4970794;28;20213;-65
2023/01/09 06:01:16;;;;;;;0.63;0.63;;;8.80;99.90;;;;;;4971100;28;20214;-65
2023/01/09 06:03:43;;;;;;;0.30;0.30;;;8.80;99.90;;;;;;4976982;28;20210;-65
2023/01/09 06:06:09;;;;;;;0.73;0.50;;;8.90;99.90;;;;;;4977227;28;20237;-65
2023/01/09 06:08:36;;;;;;;0.50;0.50;;;8.90;99.90;;;;;;4979996;28;20221;-67
2023/01/09 06:11:04;;;;;;;0.73;0.63;;;8.90;99.90;;;;;;4980477;28;20214;-64
2023/01/09 06:13:31;;;;;;;0.30;0.30;;;8.90;99.90;;;;;;4985246;28;20208;-64
2023/01/09 06:15:58;;;;;;;0.60;0.60;;;9.00;99.90;;;;;;4982779;28;20684;-65
2023/01/09 06:18:25;;;;;;;0.50;0.50;;;9.00;99.90;;;;;;4970794;28;20207;-64
2023/01/09 06:20:52;;;;;;;0.60;0.60;;;8.90;99.90;;;;;;4970206;28;20924;-65
2023/01/09 06:23:18;;;;;;;0.57;0.57;;;9.00;99.90;;;;;;4972838;28;20210;-65
2023/01/09 06:25:45;;;;;;;0.83;0.83;;;8.90;99.90;;;;;;4978307;28;20270;-64
2023/01/09 06:28:13;;;;;;;0.57;0.57;;;8.90;99.90;;;;;;4974719;28;20228;-65
2023/01/09 06:30:40;;;;;;;0.35;0.35;;;8.90;99.90;;;;;;4986942;28;20702;-65
2023/01/09 06:33:07;;;;;;;0.77;0.77;;;8.90;99.90;;;;;;4983613;28;20206;-66
2023/01/09 06:35:34;;;;;;;0.40;0.40;;;8.90;99.90;;;;;;4983370;28;20262;-65
2023/01/09 06:38:02;;;;;;;0.90;0.90;;;8.90;99.90;;;;;;4974210;28;20682;-64
2023/01/09 06:40:29;;;;;;;0.80;0.80;;;8.90;99.90;;;;;;4978031;28;20234;-64
2023/01/09 06:42:55;;;;;;;0.60;0.60;;;8.90;99.90;;;;;;4982010;28;20198;-65
2023/01/09 06:45:23;;;;;;;0.90;0.90;;;8.90;99.90;;;;;;4989192;28;20234;-65
2023/01/09 06:47:50;;;;;;;0.55;0.55;;;8.90;99.90;;;;;;4989594;28;20976;-64
2023/01/09 06:50:17;;;;;;;0.73;0.73;;;8.90;99.90;;;;;;4992316;28;20297;-65
2023/01/09 06:52:44;;;;;;;0.60;0.60;;;8.90;99.90;;;;;;4992962;28;20248;-66
2023/01/09 06:55:11;;;;;;;0.63;0.57;;;8.90;99.90;;;;;;4990661;28;20206;-63
2023/01/09 06:57:38;;;;;;;0.60;0.60;;;8.90;99.90;;;;;;4991916;28;20226;-65
2023/01/09 07:00:06;;;;;;;0.47;0.47;;;8.80;99.90;;;;;;4985476;28;20682;-65
2023/01/09 07:02:34;;;;;;;0.50;0.50;;;8.80;99.90;;;;;;4982086;28;20220;-65
2023/01/09 07:05:01;;;;;;;0.50;0.50;;;8.70;99.90;;;;;;4992880;28;20198;-67
2023/01/09 07:07:28;;;;;;;0.50;0.50;;;8.70;99.90;;;;;;4996681;28;20265;-64
2023/01/09 07:09:55;;;;;;;0.50;0.50;;;8.70;99.90;;;;;;4991736;28;20206;-64
2023/01/09 07:12:21;;;;;;;0.67;0.67;;;8.70;99.90;;;;;;4991457;28;20678;-63
2023/01/09 07:14:48;;;;;;;0.70;0.70;;;8.70;99.90;;;;;;4991485;28;20202;-63
2023/01/09 07:17:15;;;;;;;0.80;0.80;;;8.70;99.90;;;;;;4991682;28;20228;-63
2023/01/09 07:19:43;;;;;;;0.50;0.50;;;8.70;99.90;;;;;;4991698;28;20202;-63
2023/01/09 07:22:10;;;;;;;0.73;0.73;;;8.60;99.90;;;;;;4993619;28;20217;-63
2023/01/09 07:24:37;;;;;;;0.80;0.80;;;8.60;99.90;;;;;;5001990;28;20279;-63
2023/01/09 07:27:04;;;;;;;0.70;0.70;;;8.60;99.90;;;;;;5010504;28;20258;-66
2023/01/09 07:29:31;;;;;;;0.50;0.50;;;8.60;99.90;;;;;;5011637;28;20225;-65
2023/01/09 07:31:58;;;;;;;0.90;0.90;;;8.50;99.90;;;;;;5013925;28;20208;-63
2023/01/09 07:34:25;;;;;;;0.40;0.40;;;8.60;99.90;;;;;;5004047;28;20225;-65
2023/01/09 07:36:53;;;;;;;0.60;0.60;;;8.50;99.90;;;;;;4996667;28;20305;-63
2023/01/09 07:39:20;;;;;;;1.17;0.60;;;8.60;99.90;;;;;;4997687;28;20214;-65
2023/01/09 07:41:47;;;;;;;0.60;0.60;;;8.50;99.90;;;;;;4992333;28;20666;-64
2023/01/09 07:44:14;;;;;;;0.63;0.63;;;8.50;99.90;;;;;;4984066;28;20206;-64
2023/01/09 07:46:41;;;;;;;0.80;0.80;;;8.50;99.90;;;;;;4983410;28;20234;-65
2023/01/09 07:49:08;;;;;;;0.45;0.45;;;8.50;99.90;;;;;;4994226;28;20686;-65
2023/01/09 07:51:37;;;;;;;0.50;0.50;;;8.60;99.90;;;;;;4987331;28;20210;-62
2023/01/09 07:54:06;;;;;;;0.60;0.60;;;8.60;99.90;;;;;;4989058;28;20808;-64
2023/01/09 07:56:33;;;;;;;1.00;0.90;;;8.60;99.90;;;;;;4980884;28;20218;-63
2023/01/09 07:59:00;;;;;;;0.50;0.50;;;8.60;99.90;;;;;;4984345;28;20810;-65
2023/01/09 08:01:27;;;;;;;0.80;0.80;;;8.60;99.90;;;;;;4982804;28;20405;-65
2023/01/09 08:03:53;;;;;;;1.00;0.97;;;8.60;99.90;;;;;;4982416;28;20206;-63
2023/01/09 08:06:20;;;;;;;0.60;0.60;;;8.60;99.90;;;;;;4984959;28;20710;-66
2023/01/09 08:08:47;;;;;;;0.53;0.53;;;8.60;99.90;;;;;;4983386;28;20618;-64
2023/01/09 08:11:15;;;;;;;0.67;0.67;;;8.60;99.90;;;;;;4984476;28;20209;-65
2023/01/09 08:13:42;;;;;;;1.17;0.80;;;8.60;99.90;;;;;;4983258;28;20233;-63
2023/01/09 08:16:09;;;;;;;0.63;0.63;;;8.60;99.90;;;;;;4982032;28;20223;-64
2023/01/09 08:18:36;;;;;;;0.57;0.57;;;8.70;99.90;;;;;;4986750;28;20199;-64
2023/01/09 08:21:02;;;;;;;0.70;0.70;;;8.70;99.90;;;;;;4991700;28;20643;-65
2023/01/09 08:23:29;;;;;;;0.43;0.43;;;8.80;99.90;;;;;;4984660;28;20206;-63
2023/01/09 08:25:56;;;;;;;0.67;0.67;;;8.80;99.90;;;;;;4981597;28;20230;-65
2023/01/09 08:28:24;;;;;;;0.93;0.93;;;8.90;99.90;;;;;;4987795;28;20233;-64
2023/01/09 08:30:51;;;;;;;0.60;0.60;;;9.00;99.90;;;;;;4984031;28;20218;-63
2023/01/09 08:33:18;;;;;;;0.70;0.70;;;9.10;99.90;;;;;;4986849;28;20198;-65
2023/01/09 08:35:45;;;;;;;0.60;0.60;;;9.10;99.90;;;;;;4981569;28;20214;-65
2023/01/09 08:38:12;;;;;;;0.70;0.70;;;9.20;99.90;;;;;;4991683;28;20202;-64
2023/01/09 08:40:38;;;;;;;0.80;0.80;;;9.30;99.90;;;;;;4986596;28;20202;-64
2023/01/09 08:48:36;;;;;;;0.67;0.67;;;9.40;99.90;;;;;;4984305;28;20878;-63
2023/01/09 08:51:03;;;;;;;0.67;0.67;;;9.60;99.90;;;;;;5040818;28;20198;-65
2023/01/09 08:53:30;;;;;;;0.80;0.80;;;9.60;99.90;;;;;;4981506;28;20202;-64
2023/01/09 08:55:57;;;;;;;0.70;0.70;;;9.70;99.90;;;;;;4997535;28;20234;-64
2023/01/09 08:58:23;;;;;;;0.80;0.80;;;9.80;99.90;;;;;;4987560;28;20754;-64
2023/01/09 09:00:52;;;;;;;1.00;1.00;;;10.00;99.90;;;;;;4991946;28;20704;-63
2023/01/09 09:03:20;;;;;;;0.83;0.83;;;9.90;99.90;;;;;;4991210;28;20269;-64
2023/01/09 09:05:47;;;;;;;0.67;0.67;;;9.90;99.90;;;;;;4991402;28;20641;-63
2023/01/09 09:08:15;;;;;;;0.70;0.70;;;9.80;99.90;;;;;;4983846;28;20696;-65
2023/01/09 09:10:42;;;;;;;0.85;0.80;;;9.70;99.90;;;;;;4987483;28;20278;-64
2023/01/09 09:13:09;;;;;;;0.80;0.80;;;9.70;99.90;;;;;;4995955;28;20214;-67
2023/01/09 09:15:37;;;;;;;0.90;0.90;;;9.60;99.90;;;;;;5000309;28;20214;-63
2023/01/09 09:18:08;;;;;;;0.80;0.80;;;9.60;99.90;;;;;;5007107;28;20213;-65
2023/01/09 09:20:36;;;;;;;0.90;0.90;;;9.50;99.90;;;;;;5008456;28;20265;-64
2023/01/09 09:23:04;;;;;;;0.67;0.67;;;9.60;99.90;;;;;;5003338;28;20266;-65
2023/01/09 09:25:31;;;;;;;1.30;1.20;;;9.50;99.90;;;;;;5002072;28;20317;-63
2023/01/09 09:27:59;;;;;;;0.73;0.73;;;9.60;99.90;;;;;;4993810;28;20309;-63
2023/01/09 09:30:26;;;;;;;0.80;0.80;;;9.50;99.90;;;;;;4998905;28;20301;-65
2023/01/09 09:32:53;;;;;;;0.80;0.80;;;9.50;99.90;;;;;;4995827;28;20210;-66
2023/01/09 09:35:22;;;;;;;1.27;1.17;;;9.50;99.90;;;;;;4989401;28;20229;-65
2023/01/09 09:37:58;;;;;;;1.43;1.33;;;9.50;99.90;;;;;;4985220;28;20233;-64
2023/01/09 09:40:50;;;;;;;0.83;0.83;;;9.50;99.90;;;;;;4982258;28;20336;-65
2023/01/09 09:46:38;;;;;;;1.20;1.10;;;9.70;99.90;;;;;;4984055;28;20229;-64
2023/01/09 09:49:11;;;;;;;1.27;1.20;;;9.80;99.90;;;;;;4983346;28;20189;-64
2023/01/09 09:51:50;;;;;;;1.50;1.40;;;9.90;99.90;;;;;;4981736;28;20202;-64
2023/01/09 09:54:20;;;;;;;0.90;0.90;;;10.00;99.90;;;;;;4982385;28;20206;-64
2023/01/09 09:56:52;;;;;;;1.10;1.10;;;10.00;99.90;;;;;;4984530;28;20313;-65
2023/01/09 09:59:22;;;;;;;1.23;1.20;;;10.00;99.90;;;;;;4988979;28;20266;-64
2023/01/09 10:01:55;;;;;;;1.10;1.10;;;9.90;99.90;;;;;;4994062;28;20270;-63
2023/01/09 10:04:26;;;;;;;1.17;1.00;;;9.90;99.90;;;;;;4988022;28;20206;-64
2023/01/09 10:06:59;;;;;;;1.20;1.10;;;9.90;99.90;;;;;;4988911;28;20266;-64
2023/01/09 10:09:36;;;;;;;1.00;1.00;;;9.90;99.90;;;;;;4989252;28;20206;-63
2023/01/09 10:12:10;;;;;;;1.00;1.00;;;9.90;99.90;;;;;;4988258;28;20194;-65
2023/01/09 10:14:38;;;;;;;1.80;1.00;;;9.90;99.90;;;;;;4988493;28;20225;-65
2023/01/09 10:17:31;;;;;;;0.80;0.80;;;9.90;99.90;;;;;;4991020;28;20248;-64
2023/01/09 10:20:26;;;;;;;0.97;0.97;;;9.90;99.90;;;;;;4991259;28;20241;-63
2023/01/09 10:23:08;;;;;;;0.90;0.90;;;9.90;99.90;;;;;;4989062;28;20203;-64
2023/01/09 10:25:43;;;;;;;1.13;0.90;;;10.00;99.90;;;;;;4993994;28;20297;-65
2023/01/09 10:28:30;;;;;;;0.90;0.90;;;10.00;99.90;;;;;;4993672;28;20241;-63
2023/01/09 10:31:00;;;;;;;1.30;1.10;;;10.10;99.90;;;;;;4995953;28;20224;-65
2023/01/09 10:33:38;;;;;;;0.93;0.90;;;10.20;99.90;;;;;;5003676;28;20220;-65
2023/01/09 10:36:27;;;;;;;1.42;0.90;;;10.30;99.90;;;;;;4994256;28;20221;-64
2023/01/09 10:38:58;;;;;;;1.27;1.17;;;10.30;99.90;;;;;;4982580;28;20707;-64
2023/01/09 10:41:31;;;;;;;0.90;0.90;;;10.30;99.90;;;;;;4978130;28;20198;-64
2023/01/09 10:44:04;;;;;;;0.90;0.90;;;10.30;99.90;;;;;;4980552;28;20230;-63
2023/01/09 10:46:37;;;;;;;1.00;1.00;;;10.30;99.90;;;;;;4986924;28;20257;-64
2023/01/09 10:49:06;;;;;;;1.10;1.00;;;10.30;99.90;;;;;;4991054;28;20229;-64
2023/01/09 10:51:39;;;;;;;0.80;0.80;;;10.30;99.90;;;;;;4986429;28;20569;-64
2023/01/09 10:54:14;;;;;;;0.77;0.77;;;10.30;99.90;;;;;;4981751;28;20202;-65
2023/01/09 10:56:47;;;;;;;0.90;0.90;;;10.30;99.90;;;;;;4979641;28;20225;-64
2023/01/09 10:59:14;;;;;;;0.80;0.80;;;10.30;99.90;;;;;;4977773;28;20218;-64
2023/01/09 11:01:42;;;;;;;0.80;0.80;;;10.30;99.90;;;;;;4984302;28;20293;-65
2023/01/09 11:04:20;;;;;;;1.10;0.93;;;10.20;99.90;;;;;;4985092;28;20238;-64
2023/01/09 11:06:50;;;;;;;1.80;1.10;;;10.20;99.90;;;;;;4979944;28;20222;-68
2023/01/09 11:09:19;;;;;;;0.90;0.90;;;10.20;99.90;;;;;;4979171;28;20221;-63
2023/01/09 11:11:46;;;;;;;0.70;0.70;;;10.20;99.90;;;;;;4977984;28;20202;-65
2023/01/09 11:14:17;;;;;;;1.07;1.00;;;10.10;99.90;;;;;;4976782;28;20296;-65
2023/01/09 11:16:54;;;;;;;0.93;0.90;;;10.10;99.90;;;;;;4978756;28;20237;-63
2023/01/09 11:19:21;;;;;;;0.80;0.80;;;10.10;99.90;;;;;;4978233;28;20286;-65
2023/01/09 11:21:49;;;;;;;1.00;1.00;;;10.10;99.90;;;;;;4980010;28;20232;-65
2023/01/09 11:24:30;;;;;;;0.90;0.90;;;10.10;99.90;;;;;;4984713;28;20211;-65
2023/01/09 11:27:23;;;;;;;0.70;0.70;;;10.10;99.90;;;;;;4986973;28;20230;-65
2023/01/09 11:30:21;;;;;;;1.17;0.90;;;10.20;99.90;;;;;;4979452;28;20278;-65
2023/01/09 11:32:48;;;;;;;0.90;0.90;;;10.30;99.90;;;;;;4979896;28;20203;-64
2023/01/09 11:35:19;;;;;;;0.80;0.80;;;10.30;99.90;;;;;;4980099;28;20229;-65
2023/01/09 11:37:48;;;;;;;0.90;0.70;;;10.30;99.90;;;;;;4982231;28;20312;-65
2023/01/09 11:40:21;;;;;;;0.80;0.80;;;10.30;99.90;;;;;;4982205;28;20204;-64
2023/01/09 11:43:11;;;;;;;0.80;0.80;;;10.40;99.90;;;;;;4982876;28;20224;-64
2023/01/09 11:45:44;;;;;;;0.87;0.87;;;10.40;99.90;;;;;;4982261;28;20199;-65
2023/01/09 11:48:28;;;;;;;0.97;0.90;;;10.40;99.90;;;;;;4983593;28;20214;-65
2023/01/09 11:50:57;;;;;;;0.93;0.83;;;10.30;99.90;;;;;;4983013;28;20288;-65
2023/01/09 11:53:24;;;;;;;0.87;0.87;;;10.30;99.90;;;;;;4981009;28;20200;-65
2023/01/09 11:56:00;;;;;;;0.83;0.83;;;10.40;99.90;;;;;;4980785;28;20229;-64
2023/01/09 11:58:30;;;;;;;1.07;1.00;;;10.20;99.90;;;;;;4983018;28;20213;-63
2023/01/09 12:01:06;;;;;;;0.80;0.80;;;10.10;99.90;;;;;;4982743;28;20216;-65
2023/01/09 12:03:54;;;;;;;0.67;0.67;;;10.00;99.90;;;;;;4985330;28;20218;-65
2023/01/09 12:06:30;;;;;;;0.70;0.70;;;10.00;99.90;;;;;;4984500;28;20218;-65
2023/01/09 12:09:00;;;;;;;0.50;0.50;;;10.00;99.90;;;;;;4978839;28;20226;-65
2023/01/09 12:11:38;;;;;;;0.80;0.75;;;10.00;99.90;;;;;;4987026;28;20238;-65
2023/01/09 12:14:43;;;;;;;0.80;0.70;;;10.10;99.90;;;;;;4986408;28;20312;-63
2023/01/09 12:17:34;;;;;;;0.60;0.60;;;10.10;99.90;;;;;;4992723;28;20229;-64
2023/01/09 12:20:16;;;;;;;0.60;0.60;;;10.00;99.90;;;;;;4985394;28;20217;-64
2023/01/09 12:22:56;;;;;;;0.50;0.50;;;10.00;99.90;;;;;;4986566;28;20209;-68
2023/01/09 12:25:35;;;;;;;0.50;0.50;;;10.00;99.90;;;;;;4980312;28;20264;-64
2023/01/09 12:28:40;;;;;;;0.55;0.55;;;10.00;99.90;;;;;;4981567;28;20210;-65
2023/01/09 12:31:24;;;;;;;0.60;0.60;;;10.00;99.90;;;;;;4962823;28;20206;-64
2023/01/09 12:34:03;;;;;;;0.47;0.47;;;10.00;99.90;;;;;;4982475;28;20606;-64
2023/01/09 12:36:40;;;;;;;0.50;0.50;;;10.00;99.90;;;;;;4982346;28;20237;-65
2023/01/09 12:39:19;;;;;;;0.80;0.80;;;10.00;99.90;;;;;;4987081;28;20703;-64
2023/01/09 12:42:00;;;;;;;0.40;0.40;;;9.90;99.90;;;;;;4984162;28;20202;-64
2023/01/09 12:44:44;;;;;;;0.50;0.50;;;9.90;99.90;;;;;;4987138;28;20266;-65
2023/01/09 12:47:37;;;;;;;0.60;0.60;;;9.80;99.90;;;;;;4988930;28;20226;-65
2023/01/09 12:50:20;;;;;;;0.53;0.53;;;9.80;99.90;;;;;;4994358;28;20222;-64
2023/01/09 12:52:55;;;;;;;0.50;0.50;;;9.70;99.90;;;;;;4997079;28;20209;-64
2023/01/09 12:55:25;;;;;;;0.50;0.50;;;9.70;99.90;;;;;;4990628;28;20300;-64
2023/01/09 12:57:55;;;;;;;0.50;0.50;;;9.70;99.90;;;;;;5000268;28;20585;-64
2023/01/09 13:00:25;;;;;;;0.60;0.50;;;9.70;99.90;;;;;;5004941;28;20225;-63
2023/01/09 13:02:58;;;;;;;0.50;0.50;;;9.60;99.90;;;;;;5003500;28;20209;-63
2023/01/09 13:05:32;;;;;;;0.60;0.60;;;9.60;99.90;;;;;;5016732;28;20216;-65
2023/01/09 13:08:03;;;;;;;0.60;0.60;;;9.70;99.90;;;;;;5002378;28;20235;-65
2023/01/09 13:10:32;;;;;;;1.03;0.70;;;9.70;99.90;;;;;;4995780;28;20202;-66
2023/01/09 13:13:05;;;;;;;0.50;0.50;;;9.70;99.90;;;;;;5000741;28;20198;-65
2023/01/09 13:15:37;;;;;;;0.40;0.40;;;9.70;99.90;;;;;;4997421;28;20213;-62
2023/01/09 13:18:12;;;;;;;0.80;0.80;;;9.70;99.90;;;;;;5000428;28;20398;-65
2023/01/09 13:20:43;;;;;;;0.50;0.50;;;9.70;99.90;;;;;;4999768;28;20209;-65
2023/01/09 13:23:26;;;;;;;0.50;0.50;;;9.70;99.90;;;;;;4998137;28;20230;-63